Time;durP1;ratioP1;P1;durP2;ratioP2;P2;SDS_P1;SDS_P2;PMS_P1;PMS_P2;Temp;Humidity;BMP_temperature;BMP_pressure;BME280_temperature;BME280_humidity;BME280_pressure;Samples;Min_cycle;Max_cycle;Signal;HPM_P1;HPM_P2
2021/12/10 00:00:19;;;;;;;;;;;23.80;49.50;;;;;;1539941;75;829;-67
2021/12/10 00:02:20;;;;;;;;;;;23.80;49.40;;;;;;1535617;76;1263;-67
2021/12/10 00:04:29;;;;;;;;;;;23.80;49.40;;;;;;1544892;75;740;-66
2021/12/10 00:06:32;;;;;;;;;;;23.80;49.50;;;;;;1550887;75;1430;-66
2021/12/10 00:08:35;;;;;;;;;;;23.80;49.50;;;;;;1544430;75;732;-66
2021/12/10 00:10:38;;;;;;;;;;;23.80;49.40;;;;;;1554526;75;740;-66
2021/12/10 00:12:44;;;;;;;;;;;23.90;49.60;;;;;;1557972;75;1172;-65
2021/12/10 00:14:45;;;;;;;;;;;23.80;49.40;;;;;;1564946;74;1761;-68
2021/12/10 00:16:47;;;;;;;;;;;23.80;49.40;;;;;;1559870;75;1927;-65
2021/12/10 00:18:54;;;;;;;;;;;23.80;49.40;;;;;;1549549;74;835;-66
2021/12/10 00:20:58;;;;;;;;;;;23.80;49.50;;;;;;1564464;74;1621;-65
2021/12/10 00:22:58;;;;;;;;;;;23.80;49.40;;;;;;1555989;75;1600;-65
2021/12/10 00:25:00;;;;;;;;;;;23.80;49.50;;;;;;1558465;75;793;-68
2021/12/10 00:27:06;;;;;;;;;;;23.80;49.50;;;;;;1540832;74;843;-67
2021/12/10 00:29:08;;;;;;;;;;;23.80;49.60;;;;;;1551803;75;686;-67
2021/12/10 00:31:31;;;;;;;;;;;23.80;49.50;;;;;;1567206;75;779;-67
2021/12/10 00:33:25;;;;;;;;;;;23.80;49.50;;;;;;1557733;75;1665;-72
2021/12/10 00:35:27;;;;;;;;;;;23.90;49.70;;;;;;1550318;74;751;-69
2021/12/10 00:37:29;;;;;;;;;;;23.80;49.60;;;;;;1544650;75;1947;-69
2021/12/10 00:39:36;;;;;;;;;;;23.80;49.60;;;;;;1548894;75;881;-68
2021/12/10 00:41:38;;;;;;;;;;;23.80;49.60;;;;;;1558496;75;1828;-69
2021/12/10 00:43:40;;;;;;;;;;;23.80;49.60;;;;;;1549190;74;1164;-67
2021/12/10 00:45:41;;;;;;;;;;;23.70;49.60;;;;;;1551145;75;778;-67
2021/12/10 00:47:43;;;;;;;;;;;23.90;49.70;;;;;;1565715;74;782;-68
2021/12/10 00:49:45;;;;;;;;;;;23.80;49.50;;;;;;1549753;76;801;-66
2021/12/10 00:51:47;;;;;;;;;;;23.80;49.50;;;;;;1555592;75;745;-67
2021/12/10 00:53:49;;;;;;;;;;;23.80;49.50;;;;;;1573820;75;1058;-66
2021/12/10 00:55:51;;;;;;;;;;;23.80;49.50;;;;;;1550397;74;748;-66
2021/12/10 00:57:53;;;;;;;;;;;23.80;49.50;;;;;;1553031;75;1932;-66
2021/12/10 00:59:55;;;;;;;;;;;23.80;49.50;;;;;;1557062;74;831;-66
2021/12/10 01:01:57;;;;;;;;;;;23.70;49.50;;;;;;1554914;75;756;-66
2021/12/10 01:04:00;;;;;;;;;;;23.80;49.40;;;;;;1554502;75;1101;-64
2021/12/10 01:06:03;;;;;;;;;;;23.80;49.50;;;;;;1544320;75;1837;-65
2021/12/10 01:08:05;;;;;;;;;;;23.80;49.50;;;;;;1551946;75;836;-66
2021/12/10 01:10:09;;;;;;;;;;;23.80;49.50;;;;;;1550046;75;798;-67
2021/12/10 01:12:12;;;;;;;;;;;23.80;49.50;;;;;;1558838;75;1162;-66
2021/12/10 01:14:22;;;;;;;;;;;23.70;49.40;;;;;;1560196;75;781;-66
2021/12/10 01:23:47;;;;;;;;;;;23.80;49.50;;;;;;1541720;75;1623;-66
2021/12/10 01:25:35;;;;;;;;;;;23.70;49.50;;;;;;1561757;75;1699;-66
2021/12/10 01:27:33;;;;;;;;;;;23.70;49.60;;;;;;1556040;75;1568;-66
2021/12/10 01:29:36;;;;;;;;;;;23.80;49.60;;;;;;1545706;74;682;-66
2021/12/10 01:31:39;;;;;;;;;;;23.80;49.60;;;;;;1562546;75;811;-68
2021/12/10 01:33:41;;;;;;;;;;;23.80;49.50;;;;;;1546032;75;1153;-67
2021/12/10 01:35:44;;;;;;;;;;;23.80;49.50;;;;;;1552556;74;819;-67
2021/12/10 01:37:46;;;;;;;;;;;23.80;49.50;;;;;;1560811;74;2102;-67
2021/12/10 01:39:48;;;;;;;;;;;23.80;49.50;;;;;;1551228;75;771;-66
2021/12/10 01:41:56;;;;;;;;;;;23.80;49.50;;;;;;1566059;75;709;-67
2021/12/10 01:44:00;;;;;;;;;;;23.80;49.50;;;;;;1553221;74;1563;-67
2021/12/10 01:46:05;;;;;;;;;;;23.80;49.50;;;;;;1563529;75;1623;-68
2021/12/10 01:48:04;;;;;;;;;;;23.80;49.50;;;;;;1547545;74;1602;-67
2021/12/10 01:50:06;;;;;;;;;;;23.80;49.40;;;;;;1550735;75;1881;-67
2021/12/10 01:52:08;;;;;;;;;;;23.80;49.40;;;;;;1560908;75;797;-67
2021/12/10 01:54:13;;;;;;;;;;;23.80;49.40;;;;;;1554588;75;1176;-67
2021/12/10 01:56:16;;;;;;;;;;;23.80;49.40;;;;;;1550048;74;773;-67
2021/12/10 01:58:19;;;;;;;;;;;23.80;49.50;;;;;;1547311;75;1931;-67
2021/12/10 02:00:23;;;;;;;;;;;23.70;49.40;;;;;;1560974;75;665;-66
2021/12/10 02:02:26;;;;;;;;;;;23.80;49.40;;;;;;1557186;75;1139;-67
2021/12/10 02:04:29;;;;;;;;;;;23.70;49.40;;;;;;1545478;75;743;-67
2021/12/10 02:06:31;;;;;;;;;;;23.80;49.40;;;;;;1545285;75;770;-67
2021/12/10 02:08:33;;;;;;;;;;;23.80;49.40;;;;;;1553299;75;666;-67
2021/12/10 02:10:35;;;;;;;;;;;23.70;49.30;;;;;;1554444;75;737;-69
2021/12/10 02:12:36;;;;;;;;;;;23.80;49.40;;;;;;1544351;74;1192;-67
2021/12/10 02:14:38;;;;;;;;;;;23.70;49.40;;;;;;1563626;74;716;-68
2021/12/10 02:16:40;;;;;;;;;;;23.70;49.40;;;;;;1535969;75;796;-67
2021/12/10 02:18:42;;;;;;;;;;;23.80;49.40;;;;;;1553365;75;1925;-66
2021/12/10 02:20:52;;;;;;;;;;;23.80;49.40;;;;;;1548904;75;737;-66
2021/12/10 02:22:54;;;;;;;;;;;23.80;49.40;;;;;;1556019;74;1155;-67
2021/12/10 02:24:55;;;;;;;;;;;23.80;49.40;;;;;;1555215;74;740;-69
2021/12/10 02:26:59;;;;;;;;;;;23.80;49.40;;;;;;1568745;74;804;-67
2021/12/10 02:29:01;;;;;;;;;;;23.80;49.40;;;;;;1559889;75;749;-65
2021/12/10 02:31:03;;;;;;;;;;;23.80;49.40;;;;;;1554573;74;813;-66
2021/12/10 02:33:05;;;;;;;;;;;23.70;49.40;;;;;;1556829;72;3206;-67
2021/12/10 02:35:07;;;;;;;;;;;23.70;49.40;;;;;;1549122;75;701;-66
2021/12/10 02:37:11;;;;;;;;;;;23.70;49.40;;;;;;1557400;75;1912;-67
2021/12/10 02:39:13;;;;;;;;;;;23.80;49.40;;;;;;1551259;75;887;-68
2021/12/10 02:41:15;;;;;;;;;;;23.70;49.40;;;;;;1538171;76;742;-68
2021/12/10 02:43:18;;;;;;;;;;;23.70;49.40;;;;;;1537238;75;1200;-67
2021/12/10 02:45:21;;;;;;;;;;;23.70;49.40;;;;;;1525895;76;685;-67
2021/12/10 02:47:23;;;;;;;;;;;23.70;49.40;;;;;;1526087;76;751;-67
2021/12/10 02:49:25;;;;;;;;;;;23.70;49.40;;;;;;1524140;76;747;-68
2021/12/10 02:51:27;;;;;;;;;;;23.70;49.40;;;;;;1525584;76;725;-67
2021/12/10 02:53:34;;;;;;;;;;;23.70;49.40;;;;;;1524167;76;1130;-68
2021/12/10 02:55:32;;;;;;;;;;;23.70;49.40;;;;;;1523734;76;1636;-70
2021/12/10 02:57:34;;;;;;;;;;;23.70;49.40;;;;;;1525429;76;1940;-70
2021/12/10 02:59:36;;;;;;;;;;;23.80;49.40;;;;;;1526115;77;678;-70
2021/12/10 03:01:46;;;;;;;;;;;23.70;49.40;;;;;;1523827;77;710;-69
2021/12/10 03:03:47;;;;;;;;;;;23.70;49.40;;;;;;1523049;76;1153;-69
2021/12/10 03:05:49;;;;;;;;;;;23.70;49.40;;;;;;1524081;77;720;-67
2021/12/10 03:07:52;;;;;;;;;;;23.70;49.40;;;;;;1524472;76;753;-68
2021/12/10 03:09:54;;;;;;;;;;;23.70;49.40;;;;;;1530483;76;766;-64
2021/12/10 03:11:58;;;;;;;;;;;23.70;49.50;;;;;;1536274;76;672;-68
2021/12/10 03:14:02;;;;;;;;;;;23.60;49.40;;;;;;1526643;76;1680;-69
2021/12/10 03:16:03;;;;;;;;;;;23.70;49.50;;;;;;1526589;77;1636;-67
2021/12/10 03:18:06;;;;;;;;;;;23.60;49.40;;;;;;1524911;76;1968;-70
2021/12/10 03:20:08;;;;;;;;;;;23.70;49.50;;;;;;1532530;76;802;-68
2021/12/10 03:22:10;;;;;;;;;;;23.70;49.50;;;;;;1524720;77;701;-68
2021/12/10 03:24:13;;;;;;;;;;;23.70;49.50;;;;;;1524578;76;1122;-68
2021/12/10 03:26:16;;;;;;;;;;;23.60;49.40;;;;;;1524386;76;774;-68
2021/12/10 03:28:18;;;;;;;;;;;23.60;49.30;;;;;;1528768;76;917;-68
2021/12/10 03:30:22;;;;;;;;;;;23.60;49.30;;;;;;1526005;77;677;-68
2021/12/10 03:32:25;;;;;;;;;;;23.70;49.40;;;;;;1525171;76;718;-69
2021/12/10 03:34:26;;;;;;;;;;;23.60;49.20;;;;;;1530355;76;1106;-68
2021/12/10 03:36:28;;;;;;;;;;;23.60;49.20;;;;;;1524974;76;691;-68
2021/12/10 03:38:30;;;;;;;;;;;23.70;49.40;;;;;;1524768;77;1948;-74
2021/12/10 03:40:32;;;;;;;;;;;23.70;49.40;;;;;;1526029;77;740;-75
2021/12/10 03:42:34;;;;;;;;;;;23.70;49.40;;;;;;1529941;76;1142;-72
2021/12/10 03:44:36;;;;;;;;;;;23.60;49.30;;;;;;1525791;77;766;-72
2021/12/10 03:46:38;;;;;;;;;;;23.70;49.40;;;;;;1534810;76;725;-72
2021/12/10 03:48:41;;;;;;;;;;;23.70;49.40;;;;;;1532863;76;744;-73
2021/12/10 03:50:43;;;;;;;;;;;23.70;49.40;;;;;;1536971;77;894;-72
2021/12/10 03:52:45;;;;;;;;;;;23.70;49.40;;;;;;1524030;77;1123;-72
2021/12/10 03:54:47;;;;;;;;;;;23.70;49.40;;;;;;1524574;76;745;-70
2021/12/10 03:56:49;;;;;;;;;;;23.70;49.40;;;;;;1523785;76;733;-70
2021/12/10 03:58:50;;;;;;;;;;;23.70;49.40;;;;;;1524479;77;1938;-69
2021/12/10 04:00:53;;;;;;;;;;;23.70;49.30;;;;;;1527255;76;768;-69
2021/12/10 04:02:54;;;;;;;;;;;23.80;49.30;;;;;;1526378;76;1117;-70
2021/12/10 04:04:56;;;;;;;;;;;23.80;49.20;;;;;;1528695;76;893;-67
2021/12/10 04:06:59;;;;;;;;;;;23.80;49.20;;;;;;1525550;77;672;-67
2021/12/10 04:09:01;;;;;;;;;;;23.80;49.10;;;;;;1529978;76;732;-67
2021/12/10 04:11:03;;;;;;;;;;;23.90;49.20;;;;;;1527161;76;730;-67
2021/12/10 04:13:05;;;;;;;;;;;23.90;49.10;;;;;;1524420;76;1218;-69
2021/12/10 04:15:08;;;;;;;;;;;23.80;49.00;;;;;;1524755;77;762;-68
2021/12/10 04:17:09;;;;;;;;;;;23.90;49.10;;;;;;1526629;76;731;-67
2021/12/10 04:19:12;;;;;;;;;;;23.90;49.00;;;;;;1525659;76;1940;-67
2021/12/10 04:21:14;;;;;;;;;;;23.90;49.00;;;;;;1529745;76;812;-68
2021/12/10 04:23:16;;;;;;;;;;;23.90;48.90;;;;;;1524234;76;1160;-68
2021/12/10 04:25:20;;;;;;;;;;;24.00;48.90;;;;;;1525095;76;711;-68
2021/12/10 04:27:21;;;;;;;;;;;24.00;48.80;;;;;;1523993;77;712;-68
2021/12/10 04:29:23;;;;;;;;;;;24.00;48.80;;;;;;1525592;76;717;-70
2021/12/10 04:31:26;;;;;;;;;;;24.00;48.80;;;;;;1525786;76;800;-71
2021/12/10 04:33:28;;;;;;;;;;;24.00;48.70;;;;;;1523976;76;1141;-68
2021/12/10 04:35:30;;;;;;;;;;;24.00;48.70;;;;;;1525296;76;759;-69
2021/12/10 04:37:32;;;;;;;;;;;24.10;48.80;;;;;;1526445;76;670;-70
2021/12/10 04:39:37;;;;;;;;;;;24.10;48.80;;;;;;1529271;76;1934;-70
2021/12/10 04:41:38;;;;;;;;;;;24.00;48.70;;;;;;1523954;76;1684;-70
2021/12/10 04:43:40;;;;;;;;;;;24.10;48.80;;;;;;1523703;77;1134;-70
2021/12/10 04:45:42;;;;;;;;;;;24.10;48.80;;;;;;1523824;76;821;-69
2021/12/10 04:47:44;;;;;;;;;;;24.10;48.70;;;;;;1525112;76;823;-69
2021/12/10 04:49:46;;;;;;;;;;;24.10;48.50;;;;;;1525697;77;712;-67
2021/12/10 04:51:51;;;;;;;;;;;24.10;48.50;;;;;;1524321;76;702;-69
2021/12/10 04:53:53;;;;;;;;;;;24.00;48.40;;;;;;1526723;76;1099;-70
2021/12/10 04:55:55;;;;;;;;;;;24.00;48.60;;;;;;1525341;77;762;-70
2021/12/10 04:57:57;;;;;;;;;;;24.00;48.50;;;;;;1525703;76;733;-73
2021/12/10 04:59:59;;;;;;;;;;;24.00;48.60;;;;;;1525368;76;1930;-70
2021/12/10 05:02:01;;;;;;;;;;;24.00;48.60;;;;;;1526003;76;788;-70
2021/12/10 05:04:05;;;;;;;;;;;24.00;48.60;;;;;;1524564;76;1108;-69
2021/12/10 05:06:06;;;;;;;;;;;24.10;48.60;;;;;;1518344;77;723;-69
2021/12/10 05:08:09;;;;;;;;;;;24.10;48.50;;;;;;1525081;76;707;-70
2021/12/10 05:10:11;;;;;;;;;;;24.20;48.40;;;;;;1525110;77;858;-70
2021/12/10 05:12:13;;;;;;;;;;;24.20;48.40;;;;;;1524886;77;728;-68
2021/12/10 05:14:15;;;;;;;;;;;24.20;48.40;;;;;;1525423;77;1154;-68
2021/12/10 05:16:24;;;;;;;;;;;24.20;48.40;;;;;;1536572;76;718;-68
2021/12/10 05:18:21;;;;;;;;;;;24.10;48.40;;;;;;1526832;76;1929;-68
2021/12/10 05:20:25;;;;;;;;;;;24.10;48.40;;;;;;1532672;76;775;-68
2021/12/10 05:22:27;;;;;;;;;;;24.20;48.40;;;;;;1523726;76;1997;-70
2021/12/10 05:24:29;;;;;;;;;;;24.20;48.30;;;;;;1524094;77;1147;-70
2021/12/10 05:26:31;;;;;;;;;;;24.20;48.30;;;;;;1534456;77;826;-70
2021/12/10 05:28:33;;;;;;;;;;;24.20;48.30;;;;;;1525375;77;727;-71
2021/12/10 05:30:35;;;;;;;;;;;24.20;48.20;;;;;;1531452;77;816;-68
2021/12/10 05:32:37;;;;;;;;;;;24.20;48.10;;;;;;1525603;76;1119;-70
2021/12/10 05:34:40;;;;;;;;;;;24.20;48.10;;;;;;1525839;77;802;-69
2021/12/10 05:36:42;;;;;;;;;;;24.20;48.10;;;;;;1524550;77;688;-66
2021/12/10 05:38:44;;;;;;;;;;;24.20;48.10;;;;;;1525715;77;1946;-68
2021/12/10 05:40:46;;;;;;;;;;;24.10;48.20;;;;;;1526354;76;764;-68
2021/12/10 05:42:48;;;;;;;;;;;24.20;48.30;;;;;;1525616;76;1152;-68
2021/12/10 05:44:51;;;;;;;;;;;24.20;48.20;;;;;;1526153;76;736;-69
2021/12/10 05:46:53;;;;;;;;;;;24.20;48.20;;;;;;1523526;76;772;-68
2021/12/10 05:48:55;;;;;;;;;;;24.30;48.20;;;;;;1526058;76;793;-68
2021/12/10 05:50:57;;;;;;;;;;;24.20;48.10;;;;;;1527748;77;790;-67
2021/12/10 05:52:59;;;;;;;;;;;24.20;48.10;;;;;;1533877;75;1148;-67
2021/12/10 05:55:01;;;;;;;;;;;24.20;48.30;;;;;;1525479;77;795;-68
2021/12/10 05:57:03;;;;;;;;;;;24.10;48.40;;;;;;1524815;76;694;-68
2021/12/10 05:59:05;;;;;;;;;;;24.10;48.30;;;;;;1516990;76;1921;-69
2021/12/10 06:01:10;;;;;;;;;;;24.20;48.30;;;;;;1524138;76;807;-66
2021/12/10 06:03:12;;;;;;;;;;;24.20;48.30;;;;;;1525742;76;1157;-67
2021/12/10 06:05:14;;;;;;;;;;;24.20;48.20;;;;;;1525596;77;789;-67
2021/12/10 06:07:16;;;;;;;;;;;24.20;48.20;;;;;;1521568;77;951;-67
2021/12/10 06:09:18;;;;;;;;;;;24.20;48.10;;;;;;1525241;76;838;-67
2021/12/10 06:11:20;;;;;;;;;;;24.20;48.20;;;;;;1532073;77;716;-69
2021/12/10 06:13:22;;;;;;;;;;;24.20;48.20;;;;;;1524527;76;1189;-67
2021/12/10 06:15:24;;;;;;;;;;;24.10;48.40;;;;;;1523402;77;763;-66
2021/12/10 06:17:26;;;;;;;;;;;24.00;48.50;;;;;;1521547;76;689;-62
2021/12/10 06:19:27;;;;;;;;;;;24.10;48.80;;;;;;1539567;77;1933;-62
2021/12/10 06:21:29;;;;;;;;;;;24.20;48.60;;;;;;1526900;76;718;-62
2021/12/10 06:23:31;;;;;;;;;;;24.20;48.50;;;;;;1524570;76;1157;-62
2021/12/10 06:25:33;;;;;;;;;;;24.10;48.40;;;;;;1525323;76;728;-62
2021/12/10 06:27:35;;;;;;;;;;;24.10;48.60;;;;;;1531497;76;793;-65
2021/12/10 06:29:41;;;;;;;;;;;24.10;48.60;;;;;;1524877;76;792;-63
2021/12/10 06:31:41;;;;;;;;;;;24.10;48.70;;;;;;1523894;76;1865;-63
2021/12/10 06:33:43;;;;;;;;;;;24.10;49.00;;;;;;1525937;76;1121;-63
2021/12/10 06:35:46;;;;;;;;;;;24.10;48.80;;;;;;1525409;76;810;-63
2021/12/10 06:37:48;;;;;;;;;;;24.00;48.60;;;;;;1525872;77;793;-64
2021/12/10 06:39:50;;;;;;;;;;;24.00;48.60;;;;;;1525967;76;1906;-63
2021/12/10 06:41:52;;;;;;;;;;;24.00;48.60;;;;;;1525358;77;719;-62
2021/12/10 06:43:54;;;;;;;;;;;23.90;48.60;;;;;;1524606;77;1145;-64
2021/12/10 06:45:56;;;;;;;;;;;24.00;48.60;;;;;;1524775;76;773;-64
2021/12/10 06:48:00;;;;;;;;;;;24.00;48.60;;;;;;1524703;76;707;-66
2021/12/10 06:50:02;;;;;;;;;;;24.00;48.50;;;;;;1525754;76;770;-64
2021/12/10 06:52:04;;;;;;;;;;;23.90;48.50;;;;;;1525117;77;795;-67
2021/12/10 06:54:06;;;;;;;;;;;23.90;48.40;;;;;;1524589;76;1140;-64
2021/12/10 06:56:08;;;;;;;;;;;23.90;48.40;;;;;;1525136;76;765;-63
2021/12/10 06:58:10;;;;;;;;;;;23.90;48.40;;;;;;1525937;76;813;-64
2021/12/10 07:00:14;;;;;;;;;;;23.90;48.40;;;;;;1525781;76;1940;-64
2021/12/10 07:02:15;;;;;;;;;;;23.90;48.40;;;;;;1524545;76;1823;-64
2021/12/10 07:04:17;;;;;;;;;;;23.90;48.40;;;;;;1529770;76;1093;-63
2021/12/10 07:06:19;;;;;;;;;;;23.90;48.40;;;;;;1526430;77;721;-66
2021/12/10 07:08:22;;;;;;;;;;;23.80;48.20;;;;;;1525756;76;717;-65
2021/12/10 07:10:23;;;;;;;;;;;23.80;48.30;;;;;;1525862;77;740;-64
2021/12/10 07:12:25;;;;;;;;;;;23.80;48.20;;;;;;1524589;76;911;-62
2021/12/10 07:14:27;;;;;;;;;;;23.80;48.20;;;;;;1524607;76;1117;-64
2021/12/10 07:16:29;;;;;;;;;;;23.80;48.20;;;;;;1524679;76;735;-67
2021/12/10 07:18:31;;;;;;;;;;;23.90;48.30;;;;;;1526520;77;708;-64
2021/12/10 07:20:33;;;;;;;;;;;23.80;48.10;;;;;;1527572;76;1944;-64
2021/12/10 07:22:35;;;;;;;;;;;23.80;48.10;;;;;;1524710;76;1134;-64
2021/12/10 07:24:37;;;;;;;;;;;23.80;48.10;;;;;;1529732;76;793;-66
2021/12/10 07:26:39;;;;;;;;;;;23.80;48.20;;;;;;1534724;77;805;-64
2021/12/10 07:28:41;;;;;;;;;;;23.80;48.10;;;;;;1534006;76;778;-65
2021/12/10 07:30:43;;;;;;;;;;;23.80;48.10;;;;;;1538863;77;699;-64
2021/12/10 07:32:45;;;;;;;;;;;23.80;48.20;;;;;;1542597;75;1140;-67
2021/12/10 07:34:47;;;;;;;;;;;23.80;48.10;;;;;;1530036;77;775;-64
2021/12/10 07:36:49;;;;;;;;;;;23.80;48.10;;;;;;1537410;77;837;-65
2021/12/10 07:38:51;;;;;;;;;;;23.80;48.10;;;;;;1538505;77;691;-63
2021/12/10 07:40:53;;;;;;;;;;;23.80;48.10;;;;;;1532647;77;1936;-65
2021/12/10 07:42:55;;;;;;;;;;;23.80;48.10;;;;;;1534259;77;1087;-63
2021/12/10 07:44:57;;;;;;;;;;;23.80;48.10;;;;;;1530413;76;716;-61
2021/12/10 07:47:01;;;;;;;;;;;23.80;48.10;;;;;;1537785;76;831;-63
2021/12/10 07:49:03;;;;;;;;;;;23.80;48.10;;;;;;1533681;77;746;-64
2021/12/10 07:51:06;;;;;;;;;;;23.80;48.10;;;;;;1531433;76;746;-64
2021/12/10 07:53:08;;;;;;;;;;;23.80;48.10;;;;;;1535237;75;1136;-65
2021/12/10 07:55:11;;;;;;;;;;;23.80;48.10;;;;;;1529361;76;756;-66
2021/12/10 07:57:13;;;;;;;;;;;23.80;48.10;;;;;;1536325;76;891;-63
2021/12/10 07:59:15;;;;;;;;;;;23.80;48.10;;;;;;1539525;76;1919;-67
2021/12/10 08:01:18;;;;;;;;;;;23.80;48.10;;;;;;1529872;76;701;-69
2021/12/10 08:03:20;;;;;;;;;;;23.80;48.10;;;;;;1525293;76;1133;-63
2021/12/10 08:05:25;;;;;;;;;;;23.70;48.10;;;;;;1524827;76;721;-67
2021/12/10 08:07:27;;;;;;;;;;;23.70;48.20;;;;;;1524394;76;721;-64
2021/12/10 08:09:28;;;;;;;;;;;23.80;48.20;;;;;;1525763;76;840;-64
2021/12/10 08:11:30;;;;;;;;;;;23.90;48.30;;;;;;1525181;76;740;-63
2021/12/10 08:13:32;;;;;;;;;;;23.80;48.40;;;;;;1532542;75;1140;-64
2021/12/10 08:15:34;;;;;;;;;;;23.70;48.50;;;;;;1528563;77;790;-63
2021/12/10 08:17:36;;;;;;;;;;;23.80;48.50;;;;;;1527240;77;908;-64
2021/12/10 08:19:38;;;;;;;;;;;23.80;48.50;;;;;;1537497;76;1927;-67
2021/12/10 08:21:41;;;;;;;;;;;23.90;48.60;;;;;;1514975;76;706;-65
2021/12/10 08:23:43;;;;;;;;;;;23.80;48.40;;;;;;1530409;75;1119;-65
2021/12/10 08:25:44;;;;;;;;;;;23.80;48.40;;;;;;1525283;77;767;-65
2021/12/10 08:27:46;;;;;;;;;;;23.80;48.40;;;;;;1526007;77;678;-67
2021/12/10 08:29:48;;;;;;;;;;;23.80;48.20;;;;;;1527210;76;744;-67
2021/12/10 08:31:50;;;;;;;;;;;23.80;48.30;;;;;;1524466;76;724;-68
2021/12/10 08:33:52;;;;;;;;;;;23.80;48.20;;;;;;1545143;73;2101;-65
2021/12/10 08:35:56;;;;;;;;;;;23.80;48.20;;;;;;1545729;75;782;-66
2021/12/10 08:38:00;;;;;;;;;;;23.90;48.30;;;;;;1542555;75;779;-67
2021/12/10 08:40:02;;;;;;;;;;;23.80;48.10;;;;;;1538289;75;1924;-72
2021/12/10 08:42:04;;;;;;;;;;;23.80;48.10;;;;;;1545989;76;738;-68
2021/12/10 08:44:07;;;;;;;;;;;23.80;48.10;;;;;;1553926;74;1183;-68
2021/12/10 08:46:09;;;;;;;;;;;23.80;48.10;;;;;;1552451;75;817;-67
2021/12/10 08:48:11;;;;;;;;;;;23.80;48.00;;;;;;1553982;75;775;-68
2021/12/10 08:50:16;;;;;;;;;;;23.80;48.10;;;;;;1553452;75;764;-67
2021/12/10 08:52:16;;;;;;;;;;;23.80;48.10;;;;;;1555745;75;1671;-68
2021/12/10 08:54:18;;;;;;;;;;;23.80;48.00;;;;;;1555853;75;1150;-68
2021/12/10 08:56:21;;;;;;;;;;;23.80;48.00;;;;;;1550520;76;771;-69
2021/12/10 08:58:23;;;;;;;;;;;23.80;47.90;;;;;;1546352;76;791;-67
2021/12/10 09:00:25;;;;;;;;;;;23.80;48.00;;;;;;1546901;76;1906;-67
2021/12/10 09:02:27;;;;;;;;;;;23.80;47.90;;;;;;1554354;76;717;-67
2021/12/10 09:04:29;;;;;;;;;;;23.90;48.10;;;;;;1554563;74;1135;-68
2021/12/10 09:06:32;;;;;;;;;;;23.80;47.90;;;;;;1563248;76;629;-67
2021/12/10 09:08:34;;;;;;;;;;;23.90;48.00;;;;;;1554306;76;616;-67
2021/12/10 09:10:37;;;;;;;;;;;23.90;48.00;;;;;;1551449;76;687;-68
2021/12/10 09:12:39;;;;;;;;;;;23.80;47.90;;;;;;1559186;76;747;-67
2021/12/10 09:14:45;;;;;;;;;;;23.90;47.90;;;;;;1545868;76;1073;-70
2021/12/10 09:16:45;;;;;;;;;;;23.80;47.80;;;;;;1538726;75;1878;-69
2021/12/10 09:18:47;;;;;;;;;;;23.90;48.00;;;;;;1551018;76;750;-67
2021/12/10 09:20:49;;;;;;;;;;;23.90;47.90;;;;;;1543438;76;1952;-68
2021/12/10 09:22:53;;;;;;;;;;;23.80;47.80;;;;;;1543715;76;766;-67
2021/12/10 09:24:55;;;;;;;;;;;23.90;47.90;;;;;;1548528;76;716;-67
2021/12/10 09:26:57;;;;;;;;;;;23.90;47.80;;;;;;1545731;76;717;-67
2021/12/10 09:28:59;;;;;;;;;;;23.90;47.80;;;;;;1547685;76;743;-68
2021/12/10 09:31:01;;;;;;;;;;;23.90;47.80;;;;;;1555136;76;760;-68
2021/12/10 09:33:03;;;;;;;;;;;23.90;47.80;;;;;;1542599;76;1147;-68
2021/12/10 09:35:06;;;;;;;;;;;23.90;47.80;;;;;;1546719;76;785;-67
2021/12/10 09:37:08;;;;;;;;;;;23.90;47.80;;;;;;1551415;76;728;-68
2021/12/10 09:39:10;;;;;;;;;;;23.90;47.80;;;;;;1542594;76;770;-68
2021/12/10 09:41:12;;;;;;;;;;;23.90;47.80;;;;;;1546153;76;1923;-68
2021/12/10 09:43:14;;;;;;;;;;;23.90;47.70;;;;;;1553568;74;1175;-68
2021/12/10 09:45:17;;;;;;;;;;;23.90;47.70;;;;;;1550811;76;817;-67
2021/12/10 09:47:19;;;;;;;;;;;23.90;47.70;;;;;;1546364;76;796;-68
2021/12/10 09:49:23;;;;;;;;;;;23.90;47.70;;;;;;1546173;76;778;-68
2021/12/10 09:51:28;;;;;;;;;;;23.80;47.60;;;;;;1546038;75;1664;-67
2021/12/10 09:53:31;;;;;;;;;;;23.90;47.60;;;;;;1558762;74;1131;-68
2021/12/10 09:55:33;;;;;;;;;;;23.90;47.60;;;;;;1546067;76;759;-68
2021/12/10 09:57:34;;;;;;;;;;;23.90;47.60;;;;;;1545834;75;732;-67
2021/12/10 09:59:37;;;;;;;;;;;23.90;47.70;;;;;;1552201;75;686;-68
2021/12/10 10:01:47;;;;;;;;;;;23.80;47.60;;;;;;1553982;75;1934;-68
2021/12/10 10:03:45;;;;;;;;;;;23.80;47.60;;;;;;1545047;75;1706;-67
2021/12/10 10:05:46;;;;;;;;;;;23.90;47.60;;;;;;1546826;75;939;-68
2021/12/10 10:07:51;;;;;;;;;;;23.90;47.60;;;;;;1544743;75;775;-69
2021/12/10 10:09:53;;;;;;;;;;;23.90;47.60;;;;;;1542850;75;1694;-66
2021/12/10 10:11:59;;;;;;;;;;;23.90;47.60;;;;;;1552817;75;848;-68
2021/12/10 10:14:01;;;;;;;;;;;23.90;47.60;;;;;;1541281;76;1215;-68
2021/12/10 10:16:03;;;;;;;;;;;23.80;47.50;;;;;;1546903;76;687;-68
2021/12/10 10:18:06;;;;;;;;;;;23.90;47.60;;;;;;1541816;76;689;-68
2021/12/10 10:20:08;;;;;;;;;;;23.90;47.60;;;;;;1548868;75;1931;-68
2021/12/10 10:22:11;;;;;;;;;;;23.80;47.50;;;;;;1560784;76;807;-67
2021/12/10 10:24:13;;;;;;;;;;;23.80;47.40;;;;;;1545174;76;1103;-67
2021/12/10 10:26:17;;;;;;;;;;;23.90;47.60;;;;;;1544906;76;672;-68
2021/12/10 10:28:19;;;;;;;;;;;23.90;47.50;;;;;;1544582;76;749;-68
2021/12/10 10:30:27;;;;;;;;;;;23.90;47.50;;;;;;1542430;76;700;-68
2021/12/10 10:32:30;;;;;;;;;;;23.90;47.50;;;;;;1555341;76;1198;-68
2021/12/10 10:34:32;;;;;;;;;;;23.90;47.50;;;;;;1541977;76;1153;-70
2021/12/10 10:36:34;;;;;;;;;;;23.90;47.50;;;;;;1545280;76;682;-68
2021/12/10 10:38:36;;;;;;;;;;;23.90;47.50;;;;;;1542427;76;732;-68
2021/12/10 10:40:39;;;;;;;;;;;23.90;47.50;;;;;;1545270;76;1940;-67
2021/12/10 10:42:41;;;;;;;;;;;23.90;47.60;;;;;;1530311;76;823;-68
2021/12/10 10:44:43;;;;;;;;;;;23.90;47.50;;;;;;1540534;76;1095;-68
2021/12/10 10:46:46;;;;;;;;;;;23.90;47.50;;;;;;1545149;76;756;-69
2021/12/10 10:48:48;;;;;;;;;;;23.90;47.50;;;;;;1542127;76;744;-68
2021/12/10 10:50:58;;;;;;;;;;;23.90;47.40;;;;;;1545598;76;760;-67
2021/12/10 10:53:02;;;;;;;;;;;23.90;47.40;;;;;;1537892;76;1142;-68
2021/12/10 10:55:14;;;;;;;;;;;23.90;47.50;;;;;;1544764;76;884;-68
2021/12/10 10:57:17;;;;;;;;;;;23.90;47.40;;;;;;1543630;76;765;-67
2021/12/10 10:59:25;;;;;;;;;;;23.90;47.50;;;;;;1540282;76;860;-68
2021/12/10 11:01:31;;;;;;;;;;;23.80;47.30;;;;;;1548073;75;1916;-68
2021/12/10 11:03:36;;;;;;;;;;;23.90;47.40;;;;;;1549284;75;1471;-68
2021/12/10 11:05:38;;;;;;;;;;;23.90;47.40;;;;;;1541971;76;1653;-68
2021/12/10 11:07:45;;;;;;;;;;;23.90;47.40;;;;;;1543811;76;1127;-66
2021/12/10 11:09:48;;;;;;;;;;;23.80;47.30;;;;;;1542034;76;1066;-67
2021/12/10 11:11:51;;;;;;;;;;;23.80;47.30;;;;;;1543800;75;738;-70
2021/12/10 11:14:01;;;;;;;;;;;23.90;47.40;;;;;;1542608;75;1183;-68
2021/12/10 11:16:06;;;;;;;;;;;23.90;47.30;;;;;;1542844;76;715;-67
2021/12/10 11:18:10;;;;;;;;;;;23.90;47.30;;;;;;1545773;75;806;-68
2021/12/10 11:20:13;;;;;;;;;;;24.00;47.40;;;;;;1551770;75;2113;-67
2021/12/10 11:22:15;;;;;;;;;;;24.10;47.40;;;;;;1545519;75;1945;-68
2021/12/10 11:24:25;;;;;;;;;;;24.10;47.30;;;;;;1554953;74;1243;-68
2021/12/10 11:26:26;;;;;;;;;;;24.00;47.20;;;;;;1549213;76;709;-70
2021/12/10 11:28:32;;;;;;;;;;;24.10;47.20;;;;;;1516022;78;759;-71
2021/12/10 11:30:34;;;;;;;;;;;24.10;47.20;;;;;;1547398;76;722;-70
2021/12/10 11:32:37;;;;;;;;;;;24.20;47.10;;;;;;1551861;76;738;-71
2021/12/10 11:34:40;;;;;;;;;;;24.20;47.00;;;;;;1556180;74;1092;-73
2021/12/10 11:36:42;;;;;;;;;;;24.20;46.90;;;;;;1560342;76;763;-71
2021/12/10 11:38:46;;;;;;;;;;;24.20;46.80;;;;;;1556650;76;760;-71
2021/12/10 11:40:50;;;;;;;;;;;24.20;46.80;;;;;;1554053;76;1930;-71
2021/12/10 11:42:58;;;;;;;;;;;24.30;47.00;;;;;;1547306;76;662;-70
2021/12/10 11:45:16;;;;;;;;;;;24.20;46.90;;;;;;1553371;76;1682;-73
2021/12/10 11:47:27;;;;;;;;;;;24.20;46.90;;;;;;1557344;76;1805;-71
2021/12/10 11:49:38;;;;;;;;;;;24.20;46.90;;;;;;1545883;76;1647;-69
2021/12/10 11:51:42;;;;;;;;;;;24.20;47.00;;;;;;1553205;76;1835;-71
2021/12/10 11:53:51;;;;;;;;;;;24.20;47.10;;;;;;1545939;74;1161;-69
2021/12/10 11:55:58;;;;;;;;;;;24.20;47.30;;;;;;1550834;75;706;-70
2021/12/10 11:58:00;;;;;;;;;;;24.20;47.30;;;;;;1555424;75;1816;-70
2021/12/10 12:00:06;;;;;;;;;;;24.20;47.40;;;;;;1554417;75;703;-70
2021/12/10 12:02:12;;;;;;;;;;;24.10;47.30;;;;;;1551572;75;1929;-70
2021/12/10 12:04:18;;;;;;;;;;;24.20;47.30;;;;;;1553256;74;1861;-70
2021/12/10 12:06:20;;;;;;;;;;;24.20;47.30;;;;;;1550682;75;1078;-70
2021/12/10 12:08:24;;;;;;;;;;;24.20;47.40;;;;;;1547512;75;680;-72
2021/12/10 12:10:31;;;;;;;;;;;24.20;47.50;;;;;;1547396;75;704;-71
2021/12/10 12:12:38;;;;;;;;;;;24.10;47.50;;;;;;1555190;75;1678;-73
2021/12/10 12:14:40;;;;;;;;;;;24.10;47.50;;;;;;1546183;75;1168;-68
2021/12/10 12:16:41;;;;;;;;;;;24.10;47.60;;;;;;1554493;75;1692;-68
2021/12/10 12:18:45;;;;;;;;;;;24.20;47.40;;;;;;1547243;75;711;-69